createdAt,value
2018-03-22T00:00:17.319Z,10.13
2018-03-22T00:02:44.692Z,8.80
2018-03-22T00:05:12.073Z,9.73
2018-03-22T00:07:39.416Z,12.40
2018-03-22T00:10:06.783Z,10.07
2018-03-22T00:12:34.131Z,13.17
2018-03-22T00:15:01.504Z,9.00
2018-03-22T00:17:28.845Z,11.67
2018-03-22T00:19:56.260Z,14.03
2018-03-22T00:22:29.425Z,15.87
2018-03-22T00:24:56.818Z,11.87
2018-03-22T00:27:24.173Z,9.80
2018-03-22T00:29:51.540Z,19.20
2018-03-22T00:32:18.897Z,12.10
2018-03-22T00:34:46.284Z,10.43
2018-03-22T00:37:13.635Z,13.63
2018-03-22T00:39:40.998Z,11.17
2018-03-22T00:42:08.334Z,13.73
2018-03-22T00:44:35.722Z,13.40
2018-03-22T00:47:07.209Z,14.67
2018-03-22T00:49:35.835Z,10.70
2018-03-22T00:52:03.210Z,12.07
2018-03-22T00:54:30.556Z,15.70
2018-03-22T00:56:57.919Z,14.47
2018-03-22T00:59:25.288Z,14.03
2018-03-22T01:01:52.650Z,13.63
2018-03-22T01:04:19.994Z,14.60
2018-03-22T01:06:47.392Z,17.70
2018-03-22T01:09:14.730Z,13.10
2018-03-22T01:11:42.095Z,16.70
2018-03-22T01:14:09.431Z,19.60
2018-03-22T01:16:36.799Z,18.60
2018-03-22T01:19:04.150Z,22.30
2018-03-22T01:21:31.551Z,15.20
2018-03-22T01:23:58.886Z,11.90
2018-03-22T01:26:26.246Z,17.20
2018-03-22T01:28:53.610Z,14.10
2018-03-22T01:31:20.971Z,17.10
2018-03-22T01:33:48.304Z,14.90
2018-03-22T01:36:15.668Z,14.23
2018-03-22T01:38:43.019Z,18.07
2018-03-22T01:41:10.418Z,16.47
2018-03-22T01:43:37.759Z,16.13
2018-03-22T01:46:05.130Z,9.30
2018-03-22T01:48:32.488Z,10.10
2018-03-22T01:50:59.877Z,15.17
2018-03-22T01:53:27.222Z,15.43
2018-03-22T01:55:54.556Z,15.40
2018-03-22T01:58:21.919Z,17.20
2018-03-22T02:00:49.253Z,16.00
2018-03-22T02:03:16.643Z,11.73
2018-03-22T02:05:44.863Z,10.97
2018-03-22T02:08:12.226Z,14.73
2018-03-22T02:10:39.574Z,33.40
2018-03-22T02:13:06.943Z,16.33
2018-03-22T02:15:34.285Z,13.80
2018-03-22T02:18:01.650Z,13.63
2018-03-22T02:20:28.996Z,11.67
2018-03-22T02:22:56.361Z,17.27
2018-03-22T02:25:23.697Z,15.27
2018-03-22T02:27:51.130Z,17.40
2018-03-22T02:30:18.504Z,19.63
2018-03-22T02:32:45.913Z,17.73
2018-03-22T02:35:13.265Z,19.40
2018-03-22T02:37:40.638Z,17.83
2018-03-22T02:40:07.980Z,12.33
2018-03-22T02:42:35.348Z,15.97
2018-03-22T02:45:02.700Z,16.17
2018-03-22T02:47:30.061Z,13.03
2018-03-22T02:49:57.413Z,15.70
2018-03-22T02:52:24.810Z,13.53
2018-03-22T02:54:52.199Z,15.93
2018-03-22T02:57:19.604Z,16.07
2018-03-22T02:59:46.941Z,12.83
2018-03-22T03:02:14.318Z,14.77
2018-03-22T03:04:41.664Z,16.97
2018-03-22T03:07:09.038Z,15.63
2018-03-22T03:09:36.371Z,15.20
2018-03-22T03:12:03.720Z,15.10
2018-03-22T03:14:31.185Z,21.10
2018-03-22T03:16:58.527Z,20.77
2018-03-22T03:19:25.904Z,16.67
2018-03-22T03:21:53.252Z,21.90
2018-03-22T03:24:20.635Z,16.90
2018-03-22T03:26:47.975Z,26.57
2018-03-22T03:29:15.339Z,22.23
2018-03-22T03:31:42.676Z,15.67
2018-03-22T03:34:10.048Z,17.23
2018-03-22T03:36:37.389Z,20.03
2018-03-22T03:39:04.759Z,17.63
2018-03-22T03:41:32.149Z,18.87
2018-03-22T03:43:59.516Z,21.63
2018-03-22T03:46:26.863Z,21.73
2018-03-22T03:48:54.244Z,17.53
2018-03-22T03:51:21.607Z,21.17
2018-03-22T03:53:48.968Z,17.63
2018-03-22T03:56:16.305Z,17.87
2018-03-22T03:58:43.694Z,13.17
2018-03-22T04:01:11.084Z,14.77
2018-03-22T04:03:38.448Z,21.80
2018-03-22T04:06:05.791Z,11.03
2018-03-22T04:08:33.180Z,13.83
2018-03-22T04:11:00.523Z,17.33
2018-03-22T04:13:27.894Z,20.53
2018-03-22T04:15:55.236Z,18.70
2018-03-22T04:18:22.611Z,19.17
2018-03-22T04:20:49.957Z,13.50
2018-03-22T04:23:17.334Z,15.07
2018-03-22T04:25:44.673Z,13.03
2018-03-22T04:28:12.080Z,14.13
2018-03-22T04:30:39.444Z,11.97
2018-03-22T04:33:06.805Z,12.43
2018-03-22T04:35:34.149Z,11.48
2018-03-22T04:38:01.516Z,12.33
2018-03-22T04:40:28.860Z,16.13
2018-03-22T04:42:56.203Z,13.03
2018-03-22T04:45:23.568Z,14.10
2018-03-22T04:47:51.032Z,14.87
2018-03-22T04:50:18.391Z,11.07
2018-03-22T04:52:45.729Z,17.67
2018-03-22T04:55:13.097Z,23.87
2018-03-22T04:57:40.437Z,18.37
2018-03-22T05:00:07.823Z,15.80
2018-03-22T05:02:35.173Z,16.63
2018-03-22T05:05:02.557Z,16.07
2018-03-22T05:07:29.892Z,13.07
2018-03-22T05:09:57.262Z,11.27
2018-03-22T05:12:24.597Z,11.13
2018-03-22T05:14:51.968Z,14.27
2018-03-22T05:17:19.308Z,16.53
2018-03-22T05:19:46.679Z,16.60
2018-03-22T05:22:14.015Z,14.73
2018-03-22T05:24:41.396Z,18.17
2018-03-22T05:27:08.726Z,22.27
2018-03-22T05:29:36.167Z,12.37
2018-03-22T05:32:03.503Z,13.00
2018-03-22T05:34:30.913Z,13.77
2018-03-22T05:36:58.267Z,12.50
2018-03-22T05:39:25.636Z,20.93
2018-03-22T05:41:52.984Z,16.87
2018-03-22T05:44:20.351Z,17.33
2018-03-22T05:46:47.699Z,21.13
2018-03-22T05:49:15.080Z,17.20
2018-03-22T05:51:42.428Z,21.47
2018-03-22T05:54:09.790Z,14.67
2018-03-22T05:56:37.151Z,16.33
2018-03-22T05:59:04.519Z,18.80
2018-03-22T06:01:31.864Z,17.20
2018-03-22T06:03:59.224Z,15.07
2018-03-22T06:06:26.559Z,15.70
2018-03-22T06:08:53.918Z,16.00
2018-03-22T06:11:21.280Z,12.77
2018-03-22T06:13:48.627Z,21.93
2018-03-22T06:16:16.005Z,16.33
2018-03-22T06:18:43.349Z,18.73
2018-03-22T06:21:10.835Z,18.50
2018-03-22T06:23:38.190Z,19.80
2018-03-22T06:26:05.555Z,16.27
2018-03-22T06:28:32.888Z,19.53
2018-03-22T06:31:00.253Z,20.40
2018-03-22T06:33:27.585Z,12.03
2018-03-22T06:35:54.946Z,15.17
2018-03-22T06:38:22.281Z,13.47
2018-03-22T06:40:49.637Z,14.57
2018-03-22T06:43:16.970Z,17.80
2018-03-22T06:45:44.328Z,15.30
2018-03-22T06:48:11.671Z,13.70
2018-03-22T06:50:39.030Z,25.37
2018-03-22T06:53:06.431Z,40.23
2018-03-22T06:55:33.805Z,25.10
2018-03-22T06:58:01.155Z,22.53
2018-03-22T07:00:28.530Z,21.23
2018-03-22T07:02:55.877Z,14.70
2018-03-22T07:05:23.250Z,20.07
2018-03-22T07:07:50.596Z,11.40
2018-03-22T07:10:17.959Z,17.83
2018-03-22T07:12:45.288Z,15.83
2018-03-22T07:15:12.642Z,16.37
2018-03-22T07:17:39.985Z,15.30
2018-03-22T07:20:07.339Z,12.77
2018-03-22T07:22:34.690Z,15.63
2018-03-22T07:25:02.053Z,17.77
2018-03-22T07:27:29.390Z,13.10
2018-03-22T07:29:56.774Z,31.27
2018-03-22T07:32:24.124Z,15.50
2018-03-22T07:34:51.503Z,16.60
2018-03-22T07:37:18.845Z,12.63
2018-03-22T07:39:46.183Z,17.40
2018-03-22T07:42:13.553Z,15.80
2018-03-22T07:44:40.894Z,14.60
2018-03-22T07:47:08.261Z,16.33
2018-03-22T07:49:35.596Z,11.93
2018-03-22T07:52:02.951Z,12.90
2018-03-22T07:54:30.402Z,19.37
2018-03-22T07:56:57.772Z,12.30
2018-03-22T07:59:25.112Z,18.27
2018-03-22T08:01:52.482Z,16.23
2018-03-22T08:04:19.822Z,10.30
2018-03-22T08:06:47.197Z,10.67
2018-03-22T08:09:14.535Z,15.30
2018-03-22T08:11:41.909Z,14.40
2018-03-22T08:14:09.259Z,14.10
2018-03-22T08:16:36.623Z,16.47
2018-03-22T08:19:03.962Z,14.10
2018-03-22T08:21:31.319Z,19.07
2018-03-22T08:23:58.674Z,12.97
2018-03-22T08:26:26.034Z,13.13
2018-03-22T08:28:53.377Z,13.00
2018-03-22T08:31:20.754Z,10.07
2018-03-22T08:33:48.109Z,10.13
2018-03-22T08:36:15.465Z,10.00
2018-03-22T08:38:42.798Z,9.87
2018-03-22T08:41:10.248Z,8.33
2018-03-22T08:43:37.602Z,12.80
2018-03-22T08:46:04.960Z,8.57
2018-03-22T08:48:32.317Z,8.20
2018-03-22T08:50:59.672Z,13.80
2018-03-22T08:53:27.003Z,9.57
2018-03-22T08:55:54.382Z,11.40
2018-03-22T08:58:21.712Z,9.77
2018-03-22T09:00:49.088Z,8.73
2018-03-22T09:03:16.435Z,10.87
2018-03-22T09:05:43.820Z,15.40
2018-03-22T09:08:11.187Z,12.33
2018-03-22T09:10:38.536Z,10.27
2018-03-22T09:13:05.907Z,12.63
2018-03-22T09:15:33.244Z,8.57
2018-03-22T09:18:00.618Z,12.63
2018-03-22T09:20:27.956Z,18.20
2018-03-22T09:22:55.316Z,10.60
2018-03-22T09:25:22.656Z,11.63
2018-03-22T09:27:50.078Z,10.03
2018-03-22T09:30:17.405Z,9.73
2018-03-22T09:32:44.763Z,17.40
2018-03-22T09:35:12.094Z,19.10
2018-03-22T09:37:39.460Z,15.90
2018-03-22T09:40:06.795Z,18.33
2018-03-22T09:42:34.162Z,19.43
2018-03-22T09:45:01.495Z,18.27
2018-03-22T09:47:28.867Z,18.07
2018-03-22T09:49:56.212Z,17.90
2018-03-22T09:52:23.577Z,16.40
2018-03-22T09:54:50.919Z,18.43
2018-03-22T09:57:18.295Z,23.27
2018-03-22T09:59:45.640Z,20.80
2018-03-22T10:02:13.020Z,22.17
2018-03-22T10:04:40.358Z,24.77
2018-03-22T10:07:07.746Z,20.93
2018-03-22T10:09:35.090Z,23.43
2018-03-22T10:12:02.467Z,26.93
2018-03-22T10:14:29.927Z,23.43
2018-03-22T10:16:57.310Z,20.50
2018-03-22T10:19:24.655Z,23.17
2018-03-22T10:21:52.020Z,23.57
2018-03-22T10:24:19.361Z,25.10
2018-03-22T10:26:46.732Z,26.20
2018-03-22T10:29:14.077Z,23.03
2018-03-22T10:31:41.443Z,28.53
2018-03-22T10:34:08.804Z,31.67
2018-03-22T10:36:36.171Z,31.13
2018-03-22T10:39:03.528Z,27.03
2018-03-22T10:41:30.910Z,24.17
2018-03-22T10:43:58.270Z,32.47
2018-03-22T10:46:25.622Z,31.50
2018-03-22T10:48:53.019Z,26.57
2018-03-22T10:51:20.454Z,24.50
2018-03-22T10:53:47.824Z,27.70
2018-03-22T10:56:15.162Z,33.30
2018-03-22T10:58:42.528Z,37.13
2018-03-22T11:01:15.582Z,33.60
2018-03-22T11:03:48.789Z,31.37
2018-03-22T11:06:16.126Z,33.43
2018-03-22T11:08:43.618Z,31.10
2018-03-22T11:11:11.082Z,35.60
2018-03-22T11:13:38.456Z,33.37
2018-03-22T11:16:05.816Z,38.13
2018-03-22T11:18:33.186Z,27.47
2018-03-22T11:21:00.531Z,26.60
2018-03-22T11:23:27.908Z,23.67
2018-03-22T11:25:55.266Z,24.37
2018-03-22T11:28:22.639Z,31.10
2018-03-22T11:30:49.991Z,28.57
2018-03-22T11:33:17.357Z,25.33
2018-03-22T11:35:44.699Z,25.53
2018-03-22T11:38:12.070Z,25.07
2018-03-22T11:40:39.422Z,25.47
2018-03-22T11:43:06.790Z,24.37
2018-03-22T11:45:34.157Z,25.23
2018-03-22T11:48:01.526Z,25.00
2018-03-22T11:50:28.866Z,23.10
2018-03-22T11:52:56.236Z,19.33
2018-03-22T11:55:23.578Z,19.00
2018-03-22T11:57:50.947Z,24.77
2018-03-22T12:00:18.292Z,15.87
2018-03-22T12:02:45.666Z,18.43
2018-03-22T12:05:13.005Z,21.33
2018-03-22T12:07:40.371Z,17.77
2018-03-22T12:10:07.714Z,28.90
2018-03-22T12:12:35.090Z,20.47
2018-03-22T12:15:02.439Z,15.83
2018-03-22T12:17:29.780Z,19.60
2018-03-22T12:19:57.152Z,18.20
2018-03-22T12:22:24.504Z,20.97
2018-03-22T12:24:51.866Z,15.70
2018-03-22T12:27:19.203Z,20.00
2018-03-22T12:29:46.565Z,15.40
2018-03-22T12:32:13.910Z,15.40
2018-03-22T12:34:41.291Z,15.23
2018-03-22T12:37:08.628Z,20.47
2018-03-22T12:39:36.001Z,19.80
2018-03-22T12:42:03.340Z,19.67
2018-03-22T12:44:30.730Z,19.10
2018-03-22T12:46:58.072Z,21.90
2018-03-22T12:49:25.443Z,24.63
2018-03-22T12:51:52.783Z,16.10
2018-03-22T12:54:20.155Z,20.67
2018-03-22T12:56:47.507Z,19.83
2018-03-22T12:59:14.877Z,18.90
2018-03-22T13:01:42.229Z,17.47
2018-03-22T13:04:09.610Z,18.20
2018-03-22T13:06:36.950Z,20.23
2018-03-22T13:09:04.314Z,22.30
2018-03-22T13:11:31.651Z,20.33
2018-03-22T13:13:59.016Z,18.83
2018-03-22T13:16:26.354Z,24.30
2018-03-22T13:18:53.739Z,20.30
2018-03-22T13:21:21.091Z,21.00
2018-03-22T13:23:48.468Z,15.07
2018-03-22T13:26:15.820Z,22.90
2018-03-22T13:28:43.191Z,24.13
2018-03-22T13:31:10.536Z,19.07
2018-03-22T13:33:37.909Z,20.67
2018-03-22T13:36:05.256Z,23.00
2018-03-22T13:38:32.661Z,20.13
2018-03-22T13:41:00.005Z,27.50
2018-03-22T13:43:27.380Z,18.43
2018-03-22T13:45:54.749Z,19.67
2018-03-22T13:48:22.096Z,22.43
2018-03-22T13:50:49.465Z,20.70
2018-03-22T13:53:16.811Z,24.90
2018-03-22T13:55:44.189Z,19.23
2018-03-22T13:58:11.536Z,25.23
2018-03-22T14:00:38.902Z,24.83
2018-03-22T14:03:06.275Z,20.13
2018-03-22T14:05:33.647Z,25.20
2018-03-22T14:08:00.991Z,25.73
2018-03-22T14:10:28.355Z,23.70
2018-03-22T14:12:55.692Z,29.17
2018-03-22T14:15:23.055Z,27.27
2018-03-22T14:17:50.393Z,26.57
2018-03-22T14:20:17.764Z,23.97
2018-03-22T14:22:45.108Z,21.33
2018-03-22T14:25:12.475Z,25.17
2018-03-22T14:27:39.831Z,23.50
2018-03-22T14:30:07.195Z,25.07
2018-03-22T14:32:34.544Z,33.73
2018-03-22T14:35:02.023Z,31.83
2018-03-22T14:37:29.365Z,33.33
2018-03-22T14:39:56.727Z,30.87
2018-03-22T14:42:24.082Z,33.27
2018-03-22T14:44:51.450Z,29.77
2018-03-22T14:47:18.794Z,27.20
2018-03-22T14:49:46.156Z,28.63
2018-03-22T14:52:13.502Z,27.00
2018-03-22T14:54:40.879Z,22.97
2018-03-22T14:57:08.220Z,26.90
2018-03-22T14:59:35.600Z,20.93
2018-03-22T15:02:02.938Z,24.50
2018-03-22T15:04:30.302Z,34.10
2018-03-22T15:06:57.649Z,29.40
2018-03-22T15:09:25.023Z,27.70
2018-03-22T15:11:52.367Z,26.80
2018-03-22T15:14:19.742Z,31.80
2018-03-22T15:16:47.090Z,27.90
2018-03-22T15:19:14.481Z,25.20
2018-03-22T15:21:41.840Z,25.77
2018-03-22T15:24:09.190Z,32.90
2018-03-22T15:26:36.563Z,19.23
2018-03-22T15:29:03.910Z,21.03
2018-03-22T15:31:31.282Z,22.83
2018-03-22T15:33:58.618Z,26.37
2018-03-22T15:36:25.982Z,18.93
2018-03-22T15:38:53.335Z,16.67
2018-03-22T15:41:20.710Z,22.70
2018-03-22T15:43:48.058Z,21.73
2018-03-22T15:46:15.428Z,16.83
2018-03-22T15:48:42.776Z,17.27
2018-03-22T15:51:10.147Z,17.37
2018-03-22T15:53:37.496Z,17.40
2018-03-22T15:56:04.873Z,14.97
2018-03-22T15:58:32.221Z,17.77
2018-03-22T16:00:59.585Z,14.00
2018-03-22T16:03:26.929Z,16.87
2018-03-22T16:05:54.303Z,16.17
2018-03-22T16:08:21.649Z,15.40
2018-03-22T16:10:49.019Z,17.30
2018-03-22T16:13:16.359Z,20.40
2018-03-22T16:15:43.725Z,17.87
2018-03-22T16:18:11.055Z,18.97
2018-03-22T16:20:38.430Z,16.10
2018-03-22T16:23:05.770Z,18.30
2018-03-22T16:25:33.193Z,16.15
2018-03-22T16:28:00.501Z,16.87
2018-03-22T16:30:27.880Z,15.33
2018-03-22T16:32:55.227Z,16.83
2018-03-22T16:35:22.593Z,17.00
2018-03-22T16:37:49.953Z,19.67
2018-03-22T16:40:17.363Z,15.50
2018-03-22T16:42:44.726Z,17.00
2018-03-22T16:45:12.107Z,17.67
2018-03-22T16:47:39.478Z,16.93
2018-03-22T16:50:06.854Z,13.90
2018-03-22T16:52:34.213Z,20.30
2018-03-22T16:55:01.552Z,16.00
2018-03-22T16:57:29.006Z,18.97
2018-03-22T16:59:56.358Z,16.60
2018-03-22T17:02:23.727Z,20.17
2018-03-22T17:04:51.092Z,18.23
2018-03-22T17:07:18.459Z,20.17
2018-03-22T17:09:45.813Z,16.80
2018-03-22T17:12:13.188Z,18.93
2018-03-22T17:14:40.548Z,20.60
2018-03-22T17:17:07.928Z,16.77
2018-03-22T17:19:35.288Z,23.70
2018-03-22T17:22:02.670Z,19.70
2018-03-22T17:24:30.017Z,17.67
2018-03-22T17:26:57.417Z,17.30
2018-03-22T17:29:24.769Z,25.53
2018-03-22T17:31:52.144Z,17.23
2018-03-22T17:34:19.496Z,15.20
2018-03-22T17:36:46.871Z,14.70
2018-03-22T17:39:14.220Z,16.40
2018-03-22T17:41:41.594Z,15.83
2018-03-22T17:44:08.940Z,17.50
2018-03-22T17:46:36.304Z,15.43
2018-03-22T17:49:03.656Z,17.57
2018-03-22T17:51:31.038Z,15.97
2018-03-22T17:53:58.393Z,18.33
2018-03-22T17:56:25.768Z,18.03
2018-03-22T17:58:53.104Z,18.13
2018-03-22T18:01:20.480Z,14.90
2018-03-22T18:03:47.822Z,16.70
2018-03-22T18:06:15.187Z,17.93
2018-03-22T18:08:42.530Z,15.40
2018-03-22T18:11:09.925Z,16.07
2018-03-22T18:13:37.283Z,14.80
2018-03-22T18:16:04.656Z,13.60
2018-03-22T18:18:32.026Z,20.93
2018-03-22T18:20:59.403Z,22.30
2018-03-22T18:23:26.767Z,16.40
2018-03-22T18:25:54.118Z,16.17
2018-03-22T18:28:21.502Z,15.73
2018-03-22T18:30:48.847Z,15.93
2018-03-22T18:33:16.225Z,14.33
2018-03-22T18:35:43.584Z,16.67
2018-03-22T18:38:10.946Z,17.20
2018-03-22T18:40:38.297Z,16.43
2018-03-22T18:43:05.671Z,20.00
2018-03-22T18:45:33.033Z,19.00
2018-03-22T18:48:00.407Z,15.93
2018-03-22T18:50:27.756Z,15.27
2018-03-22T18:52:55.148Z,16.47
2018-03-22T18:55:22.740Z,18.00
2018-03-22T18:57:50.249Z,16.67
2018-03-22T19:00:17.596Z,19.27
2018-03-22T19:02:45.023Z,15.90
2018-03-22T19:05:12.363Z,15.47
2018-03-22T19:07:39.733Z,20.30
2018-03-22T19:10:07.067Z,16.27
2018-03-22T19:12:34.441Z,16.80
2018-03-22T19:15:01.790Z,17.83
2018-03-22T19:17:29.158Z,14.07
2018-03-22T19:19:56.627Z,20.87
2018-03-22T19:22:24.038Z,16.50
2018-03-22T19:24:51.376Z,17.03
2018-03-22T19:27:18.743Z,16.17
2018-03-22T19:29:46.079Z,15.87
2018-03-22T19:32:13.463Z,18.23
2018-03-22T19:34:40.819Z,16.90
2018-03-22T19:37:08.195Z,15.87
2018-03-22T19:39:35.534Z,15.23
2018-03-22T19:42:02.907Z,14.87
2018-03-22T19:44:30.277Z,18.23
2018-03-22T19:46:57.615Z,20.20
2018-03-22T19:49:24.984Z,18.40
2018-03-22T19:51:52.357Z,19.87
2018-03-22T19:54:19.731Z,18.00
2018-03-22T19:56:47.083Z,17.57
2018-03-22T19:59:14.445Z,18.50
2018-03-22T20:01:41.784Z,16.50
2018-03-22T20:04:09.152Z,20.73
2018-03-22T20:06:36.501Z,17.90
2018-03-22T20:09:03.872Z,20.43
2018-03-22T20:11:31.511Z,17.17
2018-03-22T20:13:59.090Z,15.63
2018-03-22T20:16:26.434Z,17.50
2018-03-22T20:18:55.463Z,17.50
2018-03-22T20:21:23.044Z,15.43
2018-03-22T20:23:50.417Z,17.30
2018-03-22T20:26:17.760Z,15.47
2018-03-22T20:28:45.151Z,16.23
2018-03-22T20:31:12.525Z,17.70
2018-03-22T20:33:40.237Z,15.90
2018-03-22T20:36:07.702Z,15.20
2018-03-22T20:38:36.908Z,14.23
2018-03-22T20:41:04.517Z,13.90
2018-03-22T20:43:31.902Z,13.87
2018-03-22T20:45:59.250Z,16.20
2018-03-22T20:48:26.623Z,16.30
2018-03-22T20:50:53.962Z,15.60
2018-03-22T20:53:21.328Z,13.67
2018-03-22T20:55:48.688Z,15.23
2018-03-22T20:58:16.068Z,16.83
2018-03-22T21:00:43.439Z,14.40
2018-03-22T21:03:10.853Z,17.17
2018-03-22T21:05:38.196Z,16.67
2018-03-22T21:08:05.572Z,14.70
2018-03-22T21:10:32.924Z,14.03
2018-03-22T21:13:00.295Z,13.50
2018-03-22T21:15:27.633Z,16.00
2018-03-22T21:17:54.997Z,16.40
2018-03-22T21:20:22.344Z,14.87
2018-03-22T21:22:49.721Z,13.43
2018-03-22T21:25:17.111Z,15.77
2018-03-22T21:27:44.462Z,16.00
2018-03-22T21:30:11.834Z,17.90
2018-03-22T21:32:39.175Z,16.33
2018-03-22T21:35:06.547Z,17.47
2018-03-22T21:37:33.900Z,17.17
2018-03-22T21:40:01.375Z,15.60
2018-03-22T21:42:28.725Z,19.57
2018-03-22T21:44:56.127Z,19.63
2018-03-22T21:47:29.316Z,16.53
2018-03-22T21:49:56.731Z,18.03
2018-03-22T21:52:29.940Z,17.80
2018-03-22T21:54:57.307Z,18.37
2018-03-22T21:57:24.929Z,21.43
2018-03-22T21:59:52.375Z,16.30
2018-03-22T22:02:19.721Z,19.83
2018-03-22T22:04:47.096Z,19.50
2018-03-22T22:07:14.440Z,20.00
2018-03-22T22:09:41.821Z,21.17
2018-03-22T22:12:09.172Z,22.10
2018-03-22T22:14:36.544Z,20.63
2018-03-22T22:17:03.883Z,22.70
2018-03-22T22:19:31.253Z,20.00
2018-03-22T22:21:58.596Z,21.67
2018-03-22T22:24:25.992Z,21.80
2018-03-22T22:26:53.345Z,22.10
2018-03-22T22:29:20.818Z,20.50
2018-03-22T22:31:48.158Z,23.53
2018-03-22T22:34:15.531Z,22.40
2018-03-22T22:36:42.903Z,20.90
2018-03-22T22:39:10.268Z,23.50
2018-03-22T22:41:37.623Z,19.83
2018-03-22T22:44:04.996Z,19.70
2018-03-22T22:46:32.345Z,22.63
2018-03-22T22:48:59.734Z,18.90
2018-03-22T22:51:27.074Z,20.37
2018-03-22T22:53:54.450Z,22.93
2018-03-22T22:56:21.791Z,21.60
2018-03-22T22:58:49.169Z,23.90
2018-03-22T23:01:16.567Z,22.80
2018-03-22T23:03:43.921Z,19.97
2018-03-22T23:06:11.307Z,19.80
2018-03-22T23:08:38.659Z,20.27
2018-03-22T23:11:06.036Z,20.87
2018-03-22T23:13:33.391Z,19.53
2018-03-22T23:16:00.769Z,22.60
2018-03-22T23:18:28.122Z,23.00
2018-03-22T23:20:55.492Z,18.67
2018-03-22T23:23:22.840Z,24.13
2018-03-22T23:25:50.202Z,23.50
2018-03-22T23:28:17.542Z,19.10
2018-03-22T23:30:44.908Z,17.73
2018-03-22T23:33:12.244Z,20.70
2018-03-22T23:35:39.614Z,22.67
2018-03-22T23:38:06.962Z,20.40
2018-03-22T23:40:34.333Z,18.73
2018-03-22T23:43:01.675Z,20.17
2018-03-22T23:45:29.060Z,20.63
2018-03-22T23:47:56.407Z,23.40
2018-03-22T23:50:23.791Z,25.10
2018-03-22T23:52:51.178Z,18.30
2018-03-22T23:55:18.546Z,22.37
2018-03-22T23:57:45.886Z,18.80
